sensor_id;sensor_type;location;lat;lon;timestamp;P1;durP1;ratioP1;P2;durP2;ratioP2
36709;SDS011;22694;51.040;3.684;2022-10-18T00:02:13;3.30;;;3.00;;
36709;SDS011;22694;51.040;3.684;2022-10-18T00:04:38;3.70;;;3.17;;
36709;SDS011;22694;51.040;3.684;2022-10-18T00:07:04;5.32;;;3.47;;
36709;SDS011;22694;51.040;3.684;2022-10-18T00:09:30;4.10;;;3.67;;
36709;SDS011;22694;51.040;3.684;2022-10-18T00:11:55;3.20;;;2.90;;
36709;SDS011;22694;51.040;3.684;2022-10-18T00:14:21;3.47;;;3.10;;
36709;SDS011;22694;51.040;3.684;2022-10-18T00:16:47;3.60;;;3.30;;
36709;SDS011;22694;51.040;3.684;2022-10-18T00:19:13;3.00;;;2.70;;
36709;SDS011;22694;51.040;3.684;2022-10-18T00:21:38;6.30;;;3.22;;
36709;SDS011;22694;51.040;3.684;2022-10-18T00:24:04;3.55;;;2.78;;
36709;SDS011;22694;51.040;3.684;2022-10-18T00:26:30;4.60;;;3.30;;
36709;SDS011;22694;51.040;3.684;2022-10-18T00:28:57;4.13;;;3.13;;
36709;SDS011;22694;51.040;3.684;2022-10-18T00:31:26;4.63;;;3.10;;
36709;SDS011;22694;51.040;3.684;2022-10-18T00:33:55;3.17;;;2.88;;
36709;SDS011;22694;51.040;3.684;2022-10-18T00:36:25;3.40;;;2.90;;
36709;SDS011;22694;51.040;3.684;2022-10-18T00:38:52;3.40;;;3.00;;
36709;SDS011;22694;51.040;3.684;2022-10-18T00:41:19;4.03;;;3.33;;
36709;SDS011;22694;51.040;3.684;2022-10-18T00:46:48;3.70;;;3.03;;
36709;SDS011;22694;51.040;3.684;2022-10-18T00:49:15;4.20;;;3.35;;
36709;SDS011;22694;51.040;3.684;2022-10-18T00:51:49;3.83;;;3.33;;
36709;SDS011;22694;51.040;3.684;2022-10-18T00:54:20;2.97;;;2.72;;
36709;SDS011;22694;51.040;3.684;2022-10-18T00:56:47;3.85;;;3.40;;
36709;SDS011;22694;51.040;3.684;2022-10-18T00:59:13;3.15;;;2.85;;
36709;SDS011;22694;51.040;3.684;2022-10-18T01:01:40;3.95;;;2.90;;
36709;SDS011;22694;51.040;3.684;2022-10-18T01:04:06;3.60;;;3.00;;
36709;SDS011;22694;51.040;3.684;2022-10-18T01:06:32;3.92;;;3.10;;
36709;SDS011;22694;51.040;3.684;2022-10-18T01:17:17;3.15;;;2.80;;
36709;SDS011;22694;51.040;3.684;2022-10-18T01:22:43;3.00;;;2.80;;
36709;SDS011;22694;51.040;3.684;2022-10-18T01:25:35;3.00;;;2.80;;
36709;SDS011;22694;51.040;3.684;2022-10-18T01:31:23;4.25;;;2.33;;
36709;SDS011;22694;51.040;3.684;2022-10-18T01:34:01;3.20;;;2.90;;
36709;SDS011;22694;51.040;3.684;2022-10-18T01:36:31;3.13;;;2.80;;
36709;SDS011;22694;51.040;3.684;2022-10-18T01:39:07;3.30;;;2.50;;
36709;SDS011;22694;51.040;3.684;2022-10-18T01:41:40;2.85;;;2.65;;
36709;SDS011;22694;51.040;3.684;2022-10-18T01:44:11;2.97;;;2.60;;
36709;SDS011;22694;51.040;3.684;2022-10-18T01:46:39;3.53;;;2.70;;
36709;SDS011;22694;51.040;3.684;2022-10-18T01:49:06;3.90;;;2.83;;
36709;SDS011;22694;51.040;3.684;2022-10-18T01:51:32;3.65;;;2.83;;
36709;SDS011;22694;51.040;3.684;2022-10-18T01:53:58;3.13;;;2.83;;
36709;SDS011;22694;51.040;3.684;2022-10-18T02:01:41;3.15;;;2.80;;
36709;SDS011;22694;51.040;3.684;2022-10-18T02:10:10;3.22;;;2.78;;
36709;SDS011;22694;51.040;3.684;2022-10-18T02:12:40;2.78;;;2.50;;
36709;SDS011;22694;51.040;3.684;2022-10-18T02:15:08;2.88;;;2.67;;
36709;SDS011;22694;51.040;3.684;2022-10-18T02:17:38;3.00;;;2.63;;
36709;SDS011;22694;51.040;3.684;2022-10-18T02:20:05;4.63;;;2.70;;
36709;SDS011;22694;51.040;3.684;2022-10-18T02:22:32;3.38;;;3.00;;
36709;SDS011;22694;51.040;3.684;2022-10-18T02:25:01;3.05;;;2.80;;
36709;SDS011;22694;51.040;3.684;2022-10-18T02:27:29;3.28;;;2.97;;
36709;SDS011;22694;51.040;3.684;2022-10-18T02:29:55;3.03;;;2.83;;
36709;SDS011;22694;51.040;3.684;2022-10-18T02:35:17;3.10;;;2.90;;
36709;SDS011;22694;51.040;3.684;2022-10-18T02:37:50;2.95;;;2.75;;
36709;SDS011;22694;51.040;3.684;2022-10-18T02:40:18;3.45;;;2.70;;
36709;SDS011;22694;51.040;3.684;2022-10-18T02:42:48;2.53;;;2.33;;
36709;SDS011;22694;51.040;3.684;2022-10-18T02:45:15;2.80;;;2.60;;
36709;SDS011;22694;51.040;3.684;2022-10-18T02:47:41;3.00;;;2.80;;
36709;SDS011;22694;51.040;3.684;2022-10-18T02:50:07;5.18;;;2.90;;
36709;SDS011;22694;51.040;3.684;2022-10-18T02:52:33;3.15;;;2.72;;
36709;SDS011;22694;51.040;3.684;2022-10-18T02:54:59;3.05;;;2.78;;
36709;SDS011;22694;51.040;3.684;2022-10-18T02:57:25;4.53;;;2.65;;
36709;SDS011;22694;51.040;3.684;2022-10-18T02:59:51;3.63;;;2.75;;
36709;SDS011;22694;51.040;3.684;2022-10-18T03:02:16;2.78;;;2.53;;
36709;SDS011;22694;51.040;3.684;2022-10-18T03:04:42;3.10;;;2.67;;
36709;SDS011;22694;51.040;3.684;2022-10-18T03:07:07;5.10;;;2.80;;
36709;SDS011;22694;51.040;3.684;2022-10-18T03:09:33;3.95;;;2.78;;
36709;SDS011;22694;51.040;3.684;2022-10-18T03:11:58;2.90;;;2.70;;
36709;SDS011;22694;51.040;3.684;2022-10-18T03:14:24;4.22;;;2.88;;
36709;SDS011;22694;51.040;3.684;2022-10-18T03:16:50;3.50;;;2.88;;
36709;SDS011;22694;51.040;3.684;2022-10-18T03:19:15;3.53;;;2.95;;
36709;SDS011;22694;51.040;3.684;2022-10-18T03:21:41;4.35;;;2.80;;
36709;SDS011;22694;51.040;3.684;2022-10-18T03:24:06;3.20;;;2.90;;
36709;SDS011;22694;51.040;3.684;2022-10-18T03:26:32;3.00;;;2.80;;
36709;SDS011;22694;51.040;3.684;2022-10-18T03:28:58;2.72;;;2.47;;
36709;SDS011;22694;51.040;3.684;2022-10-18T03:31:23;3.15;;;2.85;;
36709;SDS011;22694;51.040;3.684;2022-10-18T03:33:49;4.00;;;3.17;;
36709;SDS011;22694;51.040;3.684;2022-10-18T03:36:14;3.15;;;2.95;;
36709;SDS011;22694;51.040;3.684;2022-10-18T03:38:40;2.97;;;2.78;;
36709;SDS011;22694;51.040;3.684;2022-10-18T03:41:06;4.50;;;2.88;;
36709;SDS011;22694;51.040;3.684;2022-10-18T03:43:32;3.20;;;2.90;;
36709;SDS011;22694;51.040;3.684;2022-10-18T03:45:57;2.83;;;2.63;;
36709;SDS011;22694;51.040;3.684;2022-10-18T03:48:23;3.08;;;2.83;;
36709;SDS011;22694;51.040;3.684;2022-10-18T03:50:49;3.22;;;3.03;;
36709;SDS011;22694;51.040;3.684;2022-10-18T03:53:14;3.33;;;3.03;;
36709;SDS011;22694;51.040;3.684;2022-10-18T03:55:40;3.05;;;2.75;;
36709;SDS011;22694;51.040;3.684;2022-10-18T03:58:05;2.90;;;2.70;;
36709;SDS011;22694;51.040;3.684;2022-10-18T04:00:31;3.83;;;3.10;;
36709;SDS011;22694;51.040;3.684;2022-10-18T04:02:57;2.95;;;2.75;;
36709;SDS011;22694;51.040;3.684;2022-10-18T04:05:22;2.80;;;2.60;;
36709;SDS011;22694;51.040;3.684;2022-10-18T04:07:50;3.13;;;2.90;;
36709;SDS011;22694;51.040;3.684;2022-10-18T04:10:16;3.33;;;3.00;;
36709;SDS011;22694;51.040;3.684;2022-10-18T04:12:42;4.13;;;3.55;;
36709;SDS011;22694;51.040;3.684;2022-10-18T04:15:08;3.28;;;3.00;;
36709;SDS011;22694;51.040;3.684;2022-10-18T04:17:34;3.72;;;3.08;;
36709;SDS011;22694;51.040;3.684;2022-10-18T04:20:00;4.40;;;3.15;;
36709;SDS011;22694;51.040;3.684;2022-10-18T04:22:25;3.10;;;2.90;;
36709;SDS011;22694;51.040;3.684;2022-10-18T04:24:51;3.53;;;3.22;;
36709;SDS011;22694;51.040;3.684;2022-10-18T04:27:17;3.15;;;2.92;;
36709;SDS011;22694;51.040;3.684;2022-10-18T04:29:43;3.70;;;3.08;;
36709;SDS011;22694;51.040;3.684;2022-10-18T04:32:09;3.40;;;3.10;;
36709;SDS011;22694;51.040;3.684;2022-10-18T04:34:34;3.53;;;3.22;;
36709;SDS011;22694;51.040;3.684;2022-10-18T04:37:00;3.47;;;3.17;;
36709;SDS011;22694;51.040;3.684;2022-10-18T04:39:26;3.78;;;3.30;;
36709;SDS011;22694;51.040;3.684;2022-10-18T04:41:51;3.83;;;3.35;;
36709;SDS011;22694;51.040;3.684;2022-10-18T04:44:17;4.10;;;3.20;;
36709;SDS011;22694;51.040;3.684;2022-10-18T04:46:42;3.47;;;3.15;;
36709;SDS011;22694;51.040;3.684;2022-10-18T04:49:08;3.65;;;3.35;;
36709;SDS011;22694;51.040;3.684;2022-10-18T04:51:34;3.53;;;3.22;;
36709;SDS011;22694;51.040;3.684;2022-10-18T04:53:59;3.38;;;3.17;;
36709;SDS011;22694;51.040;3.684;2022-10-18T04:56:25;4.88;;;3.67;;
36709;SDS011;22694;51.040;3.684;2022-10-18T04:58:50;3.78;;;3.00;;
36709;SDS011;22694;51.040;3.684;2022-10-18T05:01:16;3.88;;;3.47;;
36709;SDS011;22694;51.040;3.684;2022-10-18T05:03:42;4.10;;;3.10;;
36709;SDS011;22694;51.040;3.684;2022-10-18T05:06:08;3.55;;;3.25;;
36709;SDS011;22694;51.040;3.684;2022-10-18T05:08:34;3.70;;;3.40;;
36709;SDS011;22694;51.040;3.684;2022-10-18T05:11:00;3.45;;;2.53;;
36709;SDS011;22694;51.040;3.684;2022-10-18T05:13:27;3.85;;;2.33;;
36709;SDS011;22694;51.040;3.684;2022-10-18T05:15:53;2.83;;;1.98;;
36709;SDS011;22694;51.040;3.684;2022-10-18T05:18:19;4.45;;;2.83;;
36709;SDS011;22694;51.040;3.684;2022-10-18T05:20:45;3.50;;;2.70;;
36709;SDS011;22694;51.040;3.684;2022-10-18T05:23:11;3.88;;;2.97;;
36709;SDS011;22694;51.040;3.684;2022-10-18T05:25:43;3.45;;;2.80;;
36709;SDS011;22694;51.040;3.684;2022-10-18T05:28:08;3.33;;;2.65;;
36709;SDS011;22694;51.040;3.684;2022-10-18T05:30:37;5.10;;;3.10;;
36709;SDS011;22694;51.040;3.684;2022-10-18T05:33:03;4.07;;;3.08;;
36709;SDS011;22694;51.040;3.684;2022-10-18T05:35:30;3.80;;;3.20;;
36709;SDS011;22694;51.040;3.684;2022-10-18T05:37:56;3.67;;;3.20;;
36709;SDS011;22694;51.040;3.684;2022-10-18T05:40:21;4.60;;;3.55;;
36709;SDS011;22694;51.040;3.684;2022-10-18T05:42:50;3.47;;;3.00;;
36709;SDS011;22694;51.040;3.684;2022-10-18T05:45:16;4.05;;;3.17;;
36709;SDS011;22694;51.040;3.684;2022-10-18T05:47:41;3.55;;;3.13;;
36709;SDS011;22694;51.040;3.684;2022-10-18T05:50:07;3.60;;;3.08;;
36709;SDS011;22694;51.040;3.684;2022-10-18T05:52:33;3.65;;;2.58;;
36709;SDS011;22694;51.040;3.684;2022-10-18T05:54:59;3.35;;;2.63;;
36709;SDS011;22694;51.040;3.684;2022-10-18T05:57:25;2.60;;;2.30;;
36709;SDS011;22694;51.040;3.684;2022-10-18T05:59:50;3.78;;;2.00;;
36709;SDS011;22694;51.040;3.684;2022-10-18T06:02:16;2.60;;;2.38;;
36709;SDS011;22694;51.040;3.684;2022-10-18T06:04:41;2.85;;;2.60;;
36709;SDS011;22694;51.040;3.684;2022-10-18T06:07:08;2.88;;;2.40;;
36709;SDS011;22694;51.040;3.684;2022-10-18T06:09:34;3.47;;;2.63;;
36709;SDS011;22694;51.040;3.684;2022-10-18T06:12:00;3.00;;;2.60;;
36709;SDS011;22694;51.040;3.684;2022-10-18T06:14:25;2.72;;;2.47;;
36709;SDS011;22694;51.040;3.684;2022-10-18T06:16:51;3.47;;;2.60;;
36709;SDS011;22694;51.040;3.684;2022-10-18T06:19:16;3.53;;;2.47;;
36709;SDS011;22694;51.040;3.684;2022-10-18T06:21:42;2.72;;;2.35;;
36709;SDS011;22694;51.040;3.684;2022-10-18T06:24:08;5.32;;;3.00;;
36709;SDS011;22694;51.040;3.684;2022-10-18T06:26:33;2.80;;;2.60;;
36709;SDS011;22694;51.040;3.684;2022-10-18T06:28:59;3.10;;;2.75;;
36709;SDS011;22694;51.040;3.684;2022-10-18T06:31:25;2.97;;;2.50;;
36709;SDS011;22694;51.040;3.684;2022-10-18T06:33:50;3.53;;;3.03;;
36709;SDS011;22694;51.040;3.684;2022-10-18T06:36:17;5.38;;;3.08;;
36709;SDS011;22694;51.040;3.684;2022-10-18T06:38:45;2.67;;;2.47;;
36709;SDS011;22694;51.040;3.684;2022-10-18T06:41:11;4.60;;;2.83;;
36709;SDS011;22694;51.040;3.684;2022-10-18T06:43:37;3.15;;;2.85;;
36709;SDS011;22694;51.040;3.684;2022-10-18T06:46:03;3.78;;;2.85;;
36709;SDS011;22694;51.040;3.684;2022-10-18T06:48:31;3.15;;;2.85;;
36709;SDS011;22694;51.040;3.684;2022-10-18T06:51:01;3.67;;;2.67;;
36709;SDS011;22694;51.040;3.684;2022-10-18T06:53:32;3.47;;;3.15;;
36709;SDS011;22694;51.040;3.684;2022-10-18T06:56:00;5.78;;;3.10;;
36709;SDS011;22694;51.040;3.684;2022-10-18T06:58:27;3.85;;;2.97;;
36709;SDS011;22694;51.040;3.684;2022-10-18T07:00:54;3.75;;;2.90;;
36709;SDS011;22694;51.040;3.684;2022-10-18T07:03:19;4.90;;;3.50;;
36709;SDS011;22694;51.040;3.684;2022-10-18T07:05:46;5.03;;;2.90;;
36709;SDS011;22694;51.040;3.684;2022-10-18T07:08:12;2.92;;;2.70;;
36709;SDS011;22694;51.040;3.684;2022-10-18T07:10:38;4.95;;;3.20;;
36709;SDS011;22694;51.040;3.684;2022-10-18T07:13:04;3.58;;;2.80;;
36709;SDS011;22694;51.040;3.684;2022-10-18T07:15:30;4.35;;;3.20;;
36709;SDS011;22694;51.040;3.684;2022-10-18T07:17:55;6.25;;;3.30;;
36709;SDS011;22694;51.040;3.684;2022-10-18T07:20:21;3.95;;;3.05;;
36709;SDS011;22694;51.040;3.684;2022-10-18T07:22:47;3.40;;;2.95;;
36709;SDS011;22694;51.040;3.684;2022-10-18T07:25:12;3.42;;;2.78;;
36709;SDS011;22694;51.040;3.684;2022-10-18T07:27:39;3.17;;;2.88;;
36709;SDS011;22694;51.040;3.684;2022-10-18T07:30:07;3.75;;;2.97;;
36709;SDS011;22694;51.040;3.684;2022-10-18T07:32:34;3.40;;;3.10;;
36709;SDS011;22694;51.040;3.684;2022-10-18T07:34:59;4.45;;;3.60;;
36709;SDS011;22694;51.040;3.684;2022-10-18T07:37:26;4.88;;;3.90;;
36709;SDS011;22694;51.040;3.684;2022-10-18T07:39:52;6.38;;;5.60;;
36709;SDS011;22694;51.040;3.684;2022-10-18T07:42:18;6.65;;;4.90;;
36709;SDS011;22694;51.040;3.684;2022-10-18T07:44:43;5.43;;;4.40;;
36709;SDS011;22694;51.040;3.684;2022-10-18T07:47:09;7.13;;;4.38;;
36709;SDS011;22694;51.040;3.684;2022-10-18T07:49:35;4.70;;;4.13;;
36709;SDS011;22694;51.040;3.684;2022-10-18T07:52:00;5.32;;;3.88;;
36709;SDS011;22694;51.040;3.684;2022-10-18T07:54:26;6.00;;;3.30;;
36709;SDS011;22694;51.040;3.684;2022-10-18T07:56:51;4.47;;;3.60;;
36709;SDS011;22694;51.040;3.684;2022-10-18T07:59:17;3.67;;;3.33;;
36709;SDS011;22694;51.040;3.684;2022-10-18T08:01:42;3.85;;;3.55;;
36709;SDS011;22694;51.040;3.684;2022-10-18T08:04:08;4.68;;;3.92;;
36709;SDS011;22694;51.040;3.684;2022-10-18T08:06:34;4.38;;;3.60;;
36709;SDS011;22694;51.040;3.684;2022-10-18T08:09:00;3.80;;;3.50;;
36709;SDS011;22694;51.040;3.684;2022-10-18T08:11:25;4.30;;;3.55;;
36709;SDS011;22694;51.040;3.684;2022-10-18T08:13:52;4.43;;;4.03;;
36709;SDS011;22694;51.040;3.684;2022-10-18T08:16:19;4.47;;;3.78;;
36709;SDS011;22694;51.040;3.684;2022-10-18T08:18:47;4.10;;;3.70;;
36709;SDS011;22694;51.040;3.684;2022-10-18T08:21:13;4.85;;;3.70;;
36709;SDS011;22694;51.040;3.684;2022-10-18T08:23:40;3.50;;;3.20;;
36709;SDS011;22694;51.040;3.684;2022-10-18T08:26:07;3.72;;;3.40;;
36709;SDS011;22694;51.040;3.684;2022-10-18T08:28:38;4.50;;;3.42;;
36709;SDS011;22694;51.040;3.684;2022-10-18T08:31:06;4.97;;;3.70;;
36709;SDS011;22694;51.040;3.684;2022-10-18T08:33:34;5.20;;;4.05;;
36709;SDS011;22694;51.040;3.684;2022-10-18T08:36:01;4.72;;;4.10;;
36709;SDS011;22694;51.040;3.684;2022-10-18T08:38:30;4.53;;;4.00;;
36709;SDS011;22694;51.040;3.684;2022-10-18T08:41:14;4.47;;;4.07;;
36709;SDS011;22694;51.040;3.684;2022-10-18T08:44:10;4.03;;;3.67;;
36709;SDS011;22694;51.040;3.684;2022-10-18T08:46:38;4.47;;;3.70;;
36709;SDS011;22694;51.040;3.684;2022-10-18T08:49:10;3.95;;;3.55;;
36709;SDS011;22694;51.040;3.684;2022-10-18T08:51:43;4.80;;;3.78;;
36709;SDS011;22694;51.040;3.684;2022-10-18T08:54:12;4.85;;;3.70;;
36709;SDS011;22694;51.040;3.684;2022-10-18T08:56:40;5.43;;;4.63;;
36709;SDS011;22694;51.040;3.684;2022-10-18T08:59:10;7.43;;;4.35;;
36709;SDS011;22694;51.040;3.684;2022-10-18T09:01:55;4.78;;;4.10;;
36709;SDS011;22694;51.040;3.684;2022-10-18T09:04:39;5.00;;;3.95;;
36709;SDS011;22694;51.040;3.684;2022-10-18T09:15:53;6.32;;;3.90;;
36709;SDS011;22694;51.040;3.684;2022-10-18T09:20:55;6.10;;;3.30;;
36709;SDS011;22694;51.040;3.684;2022-10-18T09:26:23;4.93;;;3.22;;
36709;SDS011;22694;51.040;3.684;2022-10-18T09:34:36;14.70;;;3.40;;
36709;SDS011;22694;51.040;3.684;2022-10-18T09:37:14;9.70;;;3.80;;
36709;SDS011;22694;51.040;3.684;2022-10-18T09:39:42;8.57;;;3.35;;
36709;SDS011;22694;51.040;3.684;2022-10-18T09:42:30;9.88;;;3.53;;
36709;SDS011;22694;51.040;3.684;2022-10-18T09:48:16;13.35;;;3.88;;
36709;SDS011;22694;51.040;3.684;2022-10-18T09:51:11;6.88;;;3.30;;
36709;SDS011;22694;51.040;3.684;2022-10-18T09:56:13;5.10;;;2.88;;
36709;SDS011;22694;51.040;3.684;2022-10-18T09:58:44;8.25;;;2.92;;
36709;SDS011;22694;51.040;3.684;2022-10-18T10:01:12;4.07;;;2.50;;
36709;SDS011;22694;51.040;3.684;2022-10-18T10:03:40;9.02;;;2.88;;
36709;SDS011;22694;51.040;3.684;2022-10-18T10:08:42;4.47;;;3.10;;
36709;SDS011;22694;51.040;3.684;2022-10-18T10:13:57;3.80;;;2.67;;
36709;SDS011;22694;51.040;3.684;2022-10-18T10:21:54;7.63;;;3.50;;
36709;SDS011;22694;51.040;3.684;2022-10-18T10:24:34;7.28;;;3.72;;
36709;SDS011;22694;51.040;3.684;2022-10-18T10:27:26;7.13;;;3.40;;
36709;SDS011;22694;51.040;3.684;2022-10-18T10:29:54;7.72;;;3.60;;
36709;SDS011;22694;51.040;3.684;2022-10-18T10:32:22;6.35;;;3.25;;
36709;SDS011;22694;51.040;3.684;2022-10-18T10:34:49;8.23;;;3.60;;
36709;SDS011;22694;51.040;3.684;2022-10-18T10:40:03;9.30;;;3.83;;
36709;SDS011;22694;51.040;3.684;2022-10-18T10:42:38;11.52;;;3.55;;
36709;SDS011;22694;51.040;3.684;2022-10-18T10:48:47;9.32;;;2.92;;
36709;SDS011;22694;51.040;3.684;2022-10-18T10:51:34;11.65;;;2.75;;
36709;SDS011;22694;51.040;3.684;2022-10-18T10:56:36;10.75;;;2.78;;
36709;SDS011;22694;51.040;3.684;2022-10-18T10:59:24;8.07;;;2.72;;
36709;SDS011;22694;51.040;3.684;2022-10-18T11:02:15;7.97;;;2.50;;
36709;SDS011;22694;51.040;3.684;2022-10-18T11:04:46;6.95;;;2.30;;
36709;SDS011;22694;51.040;3.684;2022-10-18T11:07:26;8.38;;;2.55;;
36709;SDS011;22694;51.040;3.684;2022-10-18T11:12:38;5.18;;;1.80;;
36709;SDS011;22694;51.040;3.684;2022-10-18T11:23:05;3.42;;;1.77;;
36709;SDS011;22694;51.040;3.684;2022-10-18T11:31:03;4.07;;;1.85;;
36709;SDS011;22694;51.040;3.684;2022-10-18T11:39:40;3.78;;;1.70;;
36709;SDS011;22694;51.040;3.684;2022-10-18T11:50:47;5.75;;;1.85;;
36709;SDS011;22694;51.040;3.684;2022-10-18T11:53:23;4.20;;;1.92;;
36709;SDS011;22694;51.040;3.684;2022-10-18T12:04:04;4.10;;;1.88;;
36709;SDS011;22694;51.040;3.684;2022-10-18T12:06:39;8.07;;;2.30;;
36709;SDS011;22694;51.040;3.684;2022-10-18T12:09:10;5.63;;;2.20;;
36709;SDS011;22694;51.040;3.684;2022-10-18T12:12:02;6.85;;;2.33;;
36709;SDS011;22694;51.040;3.684;2022-10-18T12:14:50;5.90;;;2.80;;
36709;SDS011;22694;51.040;3.684;2022-10-18T12:19:58;7.95;;;2.53;;
36709;SDS011;22694;51.040;3.684;2022-10-18T12:25:00;4.82;;;1.70;;
36709;SDS011;22694;51.040;3.684;2022-10-18T12:27:30;5.50;;;2.05;;
36709;SDS011;22694;51.040;3.684;2022-10-18T12:30:05;4.18;;;1.58;;
36709;SDS011;22694;51.040;3.684;2022-10-18T12:32:41;4.53;;;1.70;;
36709;SDS011;22694;51.040;3.684;2022-10-18T12:35:12;3.00;;;1.40;;
36709;SDS011;22694;51.040;3.684;2022-10-18T12:37:53;4.32;;;1.60;;
36709;SDS011;22694;51.040;3.684;2022-10-18T12:40:45;5.47;;;1.92;;
36709;SDS011;22694;51.040;3.684;2022-10-18T12:43:16;6.28;;;1.88;;
36709;SDS011;22694;51.040;3.684;2022-10-18T12:45:58;5.78;;;2.22;;
36709;SDS011;22694;51.040;3.684;2022-10-18T12:51:04;4.57;;;1.63;;
36709;SDS011;22694;51.040;3.684;2022-10-18T12:53:36;3.10;;;1.45;;
36709;SDS011;22694;51.040;3.684;2022-10-18T13:15:15;5.38;;;1.50;;
36709;SDS011;22694;51.040;3.684;2022-10-18T13:17:59;4.57;;;1.52;;
36709;SDS011;22694;51.040;3.684;2022-10-18T13:26:58;6.70;;;2.00;;
36709;SDS011;22694;51.040;3.684;2022-10-18T13:34:46;6.03;;;2.00;;
36709;SDS011;22694;51.040;3.684;2022-10-18T13:39:39;7.35;;;2.72;;
36709;SDS011;22694;51.040;3.684;2022-10-18T13:44:40;9.10;;;2.95;;
36709;SDS011;22694;51.040;3.684;2022-10-18T13:47:53;9.90;;;2.95;;
36709;SDS011;22694;51.040;3.684;2022-10-18T14:01:05;7.00;;;3.10;;
36709;SDS011;22694;51.040;3.684;2022-10-18T14:06:33;6.68;;;2.80;;
36709;SDS011;22694;51.040;3.684;2022-10-18T14:09:07;9.25;;;2.50;;
36709;SDS011;22694;51.040;3.684;2022-10-18T14:17:32;6.38;;;2.85;;
36709;SDS011;22694;51.040;3.684;2022-10-18T14:22:46;4.97;;;2.50;;
36709;SDS011;22694;51.040;3.684;2022-10-18T14:25:26;6.22;;;2.40;;
36709;SDS011;22694;51.040;3.684;2022-10-18T14:30:55;7.63;;;2.47;;
36709;SDS011;22694;51.040;3.684;2022-10-18T14:36:02;8.02;;;3.17;;
36709;SDS011;22694;51.040;3.684;2022-10-18T14:38:30;4.95;;;2.67;;
36709;SDS011;22694;51.040;3.684;2022-10-18T14:41:03;8.30;;;2.80;;
36709;SDS011;22694;51.040;3.684;2022-10-18T14:43:40;5.75;;;2.42;;
36709;SDS011;22694;51.040;3.684;2022-10-18T14:46:07;6.07;;;2.63;;
36709;SDS011;22694;51.040;3.684;2022-10-18T14:48:34;11.25;;;2.70;;
36709;SDS011;22694;51.040;3.684;2022-10-18T14:51:00;6.65;;;2.70;;
36709;SDS011;22694;51.040;3.684;2022-10-18T14:53:29;8.68;;;2.72;;
36709;SDS011;22694;51.040;3.684;2022-10-18T14:56:00;6.65;;;2.92;;
36709;SDS011;22694;51.040;3.684;2022-10-18T14:58:31;4.95;;;2.25;;
36709;SDS011;22694;51.040;3.684;2022-10-18T15:00:58;7.07;;;2.70;;
36709;SDS011;22694;51.040;3.684;2022-10-18T15:03:24;7.47;;;2.72;;
36709;SDS011;22694;51.040;3.684;2022-10-18T15:08:18;6.30;;;2.47;;
36709;SDS011;22694;51.040;3.684;2022-10-18T15:10:44;6.65;;;2.72;;
36709;SDS011;22694;51.040;3.684;2022-10-18T15:13:10;7.60;;;2.63;;
36709;SDS011;22694;51.040;3.684;2022-10-18T15:15:37;7.38;;;2.55;;
36709;SDS011;22694;51.040;3.684;2022-10-18T15:18:03;6.55;;;2.75;;
36709;SDS011;22694;51.040;3.684;2022-10-18T15:20:34;6.80;;;2.63;;
36709;SDS011;22694;51.040;3.684;2022-10-18T15:23:27;7.32;;;3.17;;
36709;SDS011;22694;51.040;3.684;2022-10-18T15:25:59;6.20;;;2.60;;
36709;SDS011;22694;51.040;3.684;2022-10-18T15:28:29;11.32;;;2.90;;
36709;SDS011;22694;51.040;3.684;2022-10-18T15:30:59;7.75;;;3.22;;
36709;SDS011;22694;51.040;3.684;2022-10-18T15:33:26;9.35;;;2.72;;
36709;SDS011;22694;51.040;3.684;2022-10-18T15:36:05;11.23;;;3.17;;
36709;SDS011;22694;51.040;3.684;2022-10-18T15:38:36;8.63;;;2.85;;
36709;SDS011;22694;51.040;3.684;2022-10-18T15:41:02;5.55;;;2.38;;
36709;SDS011;22694;51.040;3.684;2022-10-18T15:43:48;10.35;;;3.03;;
36709;SDS011;22694;51.040;3.684;2022-10-18T15:46:30;13.05;;;3.70;;
36709;SDS011;22694;51.040;3.684;2022-10-18T15:48:57;8.98;;;3.85;;
36709;SDS011;22694;51.040;3.684;2022-10-18T15:51:47;10.13;;;3.70;;
36709;SDS011;22694;51.040;3.684;2022-10-18T15:54:18;10.55;;;3.40;;
36709;SDS011;22694;51.040;3.684;2022-10-18T15:56:53;6.97;;;3.38;;
36709;SDS011;22694;51.040;3.684;2022-10-18T15:59:23;10.52;;;3.53;;
36709;SDS011;22694;51.040;3.684;2022-10-18T16:01:51;9.75;;;3.45;;
36709;SDS011;22694;51.040;3.684;2022-10-18T16:06:54;7.80;;;2.97;;
36709;SDS011;22694;51.040;3.684;2022-10-18T16:09:22;9.90;;;3.25;;
36709;SDS011;22694;51.040;3.684;2022-10-18T16:11:49;8.60;;;2.53;;
36709;SDS011;22694;51.040;3.684;2022-10-18T16:14:16;7.57;;;3.50;;
36709;SDS011;22694;51.040;3.684;2022-10-18T16:16:42;9.18;;;3.28;;
36709;SDS011;22694;51.040;3.684;2022-10-18T16:19:15;9.45;;;2.60;;
36709;SDS011;22694;51.040;3.684;2022-10-18T16:21:46;7.88;;;2.42;;
36709;SDS011;22694;51.040;3.684;2022-10-18T16:24:13;9.73;;;3.00;;
36709;SDS011;22694;51.040;3.684;2022-10-18T16:26:38;9.00;;;2.92;;
36709;SDS011;22694;51.040;3.684;2022-10-18T16:29:04;5.60;;;2.03;;
36709;SDS011;22694;51.040;3.684;2022-10-18T16:31:32;7.22;;;2.70;;
36709;SDS011;22694;51.040;3.684;2022-10-18T16:33:58;6.15;;;2.65;;
36709;SDS011;22694;51.040;3.684;2022-10-18T16:36:26;7.10;;;2.13;;
36709;SDS011;22694;51.040;3.684;2022-10-18T16:38:54;7.53;;;2.42;;
36709;SDS011;22694;51.040;3.684;2022-10-18T16:41:21;6.90;;;2.30;;
36709;SDS011;22694;51.040;3.684;2022-10-18T16:43:47;4.30;;;2.28;;
36709;SDS011;22694;51.040;3.684;2022-10-18T16:46:15;4.75;;;2.30;;
36709;SDS011;22694;51.040;3.684;2022-10-18T16:48:51;7.32;;;2.40;;
36709;SDS011;22694;51.040;3.684;2022-10-18T16:51:16;5.43;;;2.00;;
36709;SDS011;22694;51.040;3.684;2022-10-18T16:53:42;4.65;;;2.15;;
36709;SDS011;22694;51.040;3.684;2022-10-18T16:56:12;7.60;;;2.55;;
36709;SDS011;22694;51.040;3.684;2022-10-18T16:58:40;7.85;;;2.08;;
36709;SDS011;22694;51.040;3.684;2022-10-18T17:01:06;4.90;;;2.15;;
36709;SDS011;22694;51.040;3.684;2022-10-18T17:03:38;5.97;;;1.98;;
36709;SDS011;22694;51.040;3.684;2022-10-18T17:06:04;6.93;;;2.05;;
36709;SDS011;22694;51.040;3.684;2022-10-18T17:08:30;5.43;;;2.10;;
36709;SDS011;22694;51.040;3.684;2022-10-18T17:10:56;4.50;;;1.40;;
36709;SDS011;22694;51.040;3.684;2022-10-18T17:13:24;5.75;;;2.00;;
36709;SDS011;22694;51.040;3.684;2022-10-18T17:15:50;6.53;;;1.70;;
36709;SDS011;22694;51.040;3.684;2022-10-18T17:18:18;4.28;;;1.83;;
36709;SDS011;22694;51.040;3.684;2022-10-18T17:20:48;5.15;;;1.60;;
36709;SDS011;22694;51.040;3.684;2022-10-18T17:23:14;3.65;;;1.50;;
36709;SDS011;22694;51.040;3.684;2022-10-18T17:25:40;4.50;;;1.67;;
36709;SDS011;22694;51.040;3.684;2022-10-18T17:28:11;5.90;;;1.80;;
36709;SDS011;22694;51.040;3.684;2022-10-18T17:30:39;3.88;;;1.42;;
36709;SDS011;22694;51.040;3.684;2022-10-18T17:33:06;2.65;;;1.42;;
36709;SDS011;22694;51.040;3.684;2022-10-18T17:35:31;3.88;;;1.60;;
36709;SDS011;22694;51.040;3.684;2022-10-18T17:37:57;4.82;;;2.08;;
36709;SDS011;22694;51.040;3.684;2022-10-18T17:40:23;7.10;;;1.67;;
36709;SDS011;22694;51.040;3.684;2022-10-18T17:42:49;4.70;;;1.92;;
36709;SDS011;22694;51.040;3.684;2022-10-18T17:45:16;5.07;;;1.73;;
36709;SDS011;22694;51.040;3.684;2022-10-18T17:47:42;5.60;;;1.52;;
36709;SDS011;22694;51.040;3.684;2022-10-18T17:50:08;5.25;;;1.65;;
36709;SDS011;22694;51.040;3.684;2022-10-18T17:52:34;6.80;;;1.90;;
36709;SDS011;22694;51.040;3.684;2022-10-18T17:55:04;6.43;;;1.65;;
36709;SDS011;22694;51.040;3.684;2022-10-18T17:57:29;4.13;;;1.30;;
36709;SDS011;22694;51.040;3.684;2022-10-18T17:59:55;4.65;;;1.60;;
36709;SDS011;22694;51.040;3.684;2022-10-18T18:02:22;4.40;;;1.40;;
36709;SDS011;22694;51.040;3.684;2022-10-18T18:04:48;2.60;;;1.25;;
36709;SDS011;22694;51.040;3.684;2022-10-18T18:07:13;7.22;;;1.58;;
36709;SDS011;22694;51.040;3.684;2022-10-18T18:09:39;5.38;;;1.40;;
36709;SDS011;22694;51.040;3.684;2022-10-18T18:12:05;2.97;;;1.17;;